sensor_id;sensor_type;location;lat;lon;timestamp;pressure;altitude;pressure_sealevel;temperature;humidity
15880;BME280;61999;51.514;14.614;2024-01-25T00:01:39;100173.81;;;-0.93;100.00
15880;BME280;61999;51.514;14.614;2024-01-25T00:04:08;100150.56;;;-0.94;100.00
15880;BME280;61999;51.514;14.614;2024-01-25T00:06:36;100151.16;;;-0.86;100.00
15880;BME280;61999;51.514;14.614;2024-01-25T00:09:04;100168.06;;;-0.75;100.00
15880;BME280;61999;51.514;14.614;2024-01-25T00:11:33;100157.03;;;-0.53;100.00
15880;BME280;61999;51.514;14.614;2024-01-25T00:14:02;100180.03;;;-1.00;100.00
15880;BME280;61999;51.514;14.614;2024-01-25T00:16:30;100178.88;;;-0.90;100.00
15880;BME280;61999;51.514;14.614;2024-01-25T00:18:58;100171.16;;;-0.63;100.00
15880;BME280;61999;51.514;14.614;2024-01-25T00:21:27;100185.56;;;-0.83;100.00
15880;BME280;61999;51.514;14.614;2024-01-25T00:23:55;100170.03;;;-0.83;100.00
15880;BME280;61999;51.514;14.614;2024-01-25T00:26:23;100158.47;;;-0.71;100.00
15880;BME280;61999;51.514;14.614;2024-01-25T00:28:51;100175.31;;;-0.86;100.00
15880;BME280;61999;51.514;14.614;2024-01-25T00:31:19;100172.66;;;-0.56;100.00
15880;BME280;61999;51.514;14.614;2024-01-25T00:33:47;100155.84;;;-0.99;100.00
15880;BME280;61999;51.514;14.614;2024-01-25T00:36:16;100159.03;;;-0.89;100.00
15880;BME280;61999;51.514;14.614;2024-01-25T00:38:47;100177.72;;;-1.09;100.00
15880;BME280;61999;51.514;14.614;2024-01-25T00:41:18;100197.25;;;-1.29;100.00
15880;BME280;61999;51.514;14.614;2024-01-25T00:43:47;100153.34;;;-1.02;100.00
15880;BME280;61999;51.514;14.614;2024-01-25T00:46:16;100186.53;;;-1.16;100.00
15880;BME280;61999;51.514;14.614;2024-01-25T00:48:44;100211.72;;;-0.92;100.00
15880;BME280;61999;51.514;14.614;2024-01-25T00:51:15;100202.28;;;-0.93;100.00
15880;BME280;61999;51.514;14.614;2024-01-25T00:53:48;100188.97;;;-0.81;100.00
15880;BME280;61999;51.514;14.614;2024-01-25T00:56:17;100204.06;;;-0.97;100.00
15880;BME280;61999;51.514;14.614;2024-01-25T00:58:46;100206.13;;;-1.08;100.00
15880;BME280;61999;51.514;14.614;2024-01-25T01:01:15;100200.28;;;-0.85;100.00
15880;BME280;61999;51.514;14.614;2024-01-25T01:03:43;100190.03;;;-0.88;100.00
15880;BME280;61999;51.514;14.614;2024-01-25T01:06:12;100144.91;;;-1.07;100.00
15880;BME280;61999;51.514;14.614;2024-01-25T01:08:41;100209.22;;;-0.95;100.00
15880;BME280;61999;51.514;14.614;2024-01-25T01:11:10;100206.47;;;-1.20;100.00
15880;BME280;61999;51.514;14.614;2024-01-25T01:13:38;100203.69;;;-1.12;100.00
15880;BME280;61999;51.514;14.614;2024-01-25T01:16:06;100215.13;;;-0.90;100.00
15880;BME280;61999;51.514;14.614;2024-01-25T01:18:35;100187.97;;;-1.06;100.00
15880;BME280;61999;51.514;14.614;2024-01-25T01:21:03;100193.97;;;-1.04;100.00
15880;BME280;61999;51.514;14.614;2024-01-25T01:23:31;100194.09;;;-1.09;100.00
15880;BME280;61999;51.514;14.614;2024-01-25T01:26:00;100214.22;;;-1.18;100.00
15880;BME280;61999;51.514;14.614;2024-01-25T01:28:29;100203.88;;;-1.18;100.00
15880;BME280;61999;51.514;14.614;2024-01-25T01:30:57;100201.31;;;-1.20;100.00
15880;BME280;61999;51.514;14.614;2024-01-25T01:33:25;100224.56;;;-1.18;100.00
15880;BME280;61999;51.514;14.614;2024-01-25T01:35:53;100200.94;;;-1.08;100.00
15880;BME280;61999;51.514;14.614;2024-01-25T01:38:21;100215.25;;;-0.94;100.00
15880;BME280;61999;51.514;14.614;2024-01-25T01:40:49;100221.78;;;-0.83;100.00
15880;BME280;61999;51.514;14.614;2024-01-25T01:43:20;100227.34;;;-0.95;100.00
15880;BME280;61999;51.514;14.614;2024-01-25T01:45:51;100228.22;;;-0.66;100.00
15880;BME280;61999;51.514;14.614;2024-01-25T01:48:19;100204.41;;;-0.78;100.00
15880;BME280;61999;51.514;14.614;2024-01-25T01:50:47;100228.50;;;-0.76;100.00
15880;BME280;61999;51.514;14.614;2024-01-25T01:53:17;100236.63;;;-1.19;100.00
15880;BME280;61999;51.514;14.614;2024-01-25T01:55:45;100237.06;;;-1.05;100.00
15880;BME280;61999;51.514;14.614;2024-01-25T01:58:14;100239.00;;;-0.82;100.00
15880;BME280;61999;51.514;14.614;2024-01-25T02:00:43;100229.56;;;-1.12;100.00
15880;BME280;61999;51.514;14.614;2024-01-25T02:03:13;100215.91;;;-1.17;100.00
15880;BME280;61999;51.514;14.614;2024-01-25T02:05:41;100251.59;;;-0.99;100.00
15880;BME280;61999;51.514;14.614;2024-01-25T02:08:09;100241.09;;;-1.24;100.00
15880;BME280;61999;51.514;14.614;2024-01-25T02:10:39;100241.84;;;-1.21;100.00
15880;BME280;61999;51.514;14.614;2024-01-25T02:13:07;100239.63;;;-1.03;100.00
15880;BME280;61999;51.514;14.614;2024-01-25T02:15:35;100249.44;;;-1.14;100.00
15880;BME280;61999;51.514;14.614;2024-01-25T02:18:03;100259.22;;;-1.26;100.00
15880;BME280;61999;51.514;14.614;2024-01-25T02:20:33;100243.22;;;-1.40;100.00
15880;BME280;61999;51.514;14.614;2024-01-25T02:23:03;100239.63;;;-1.34;100.00
15880;BME280;61999;51.514;14.614;2024-01-25T02:25:31;100221.63;;;-1.39;100.00
15880;BME280;61999;51.514;14.614;2024-01-25T02:27:59;100241.69;;;-1.16;100.00
15880;BME280;61999;51.514;14.614;2024-01-25T02:30:26;100230.66;;;-0.90;100.00
15880;BME280;61999;51.514;14.614;2024-01-25T02:32:54;100233.31;;;-0.93;100.00
15880;BME280;61999;51.514;14.614;2024-01-25T02:35:23;100232.22;;;-1.48;100.00
15880;BME280;61999;51.514;14.614;2024-01-25T02:37:51;100246.94;;;-1.17;100.00
15880;BME280;61999;51.514;14.614;2024-01-25T02:40:20;100236.59;;;-1.17;100.00
15880;BME280;61999;51.514;14.614;2024-01-25T02:42:48;100234.81;;;-1.15;100.00
15880;BME280;61999;51.514;14.614;2024-01-25T02:45:16;100242.41;;;-1.42;100.00
15880;BME280;61999;51.514;14.614;2024-01-25T02:47:44;100261.06;;;-1.31;100.00
15880;BME280;61999;51.514;14.614;2024-01-25T02:50:12;100248.44;;;-1.10;100.00
15880;BME280;61999;51.514;14.614;2024-01-25T02:52:40;100228.19;;;-1.26;100.00
15880;BME280;61999;51.514;14.614;2024-01-25T02:55:08;100238.09;;;-1.10;100.00
15880;BME280;61999;51.514;14.614;2024-01-25T02:57:38;100246.00;;;-0.84;100.00
15880;BME280;61999;51.514;14.614;2024-01-25T03:00:08;100235.22;;;-1.31;100.00
15880;BME280;61999;51.514;14.614;2024-01-25T03:02:36;100196.59;;;-1.37;100.00
15880;BME280;61999;51.514;14.614;2024-01-25T03:05:04;100214.53;;;-1.31;100.00
15880;BME280;61999;51.514;14.614;2024-01-25T03:07:32;100210.81;;;-1.21;100.00
15880;BME280;61999;51.514;14.614;2024-01-25T03:10:00;100209.34;;;-1.31;100.00
15880;BME280;61999;51.514;14.614;2024-01-25T03:12:29;100203.88;;;-1.18;100.00
15880;BME280;61999;51.514;14.614;2024-01-25T03:14:58;100251.06;;;-1.43;100.00
15880;BME280;61999;51.514;14.614;2024-01-25T03:17:26;100198.84;;;-1.25;100.00
15880;BME280;61999;51.514;14.614;2024-01-25T03:19:54;100230.59;;;-1.20;100.00
15880;BME280;61999;51.514;14.614;2024-01-25T03:22:22;100198.91;;;-1.28;100.00
15880;BME280;61999;51.514;14.614;2024-01-25T03:24:50;100210.63;;;-1.46;100.00
15880;BME280;61999;51.514;14.614;2024-01-25T03:27:18;100193.84;;;-1.31;100.00
15880;BME280;61999;51.514;14.614;2024-01-25T03:29:46;100158.25;;;-1.52;100.00
15880;BME280;61999;51.514;14.614;2024-01-25T03:32:15;100198.91;;;-1.59;100.00
15880;BME280;61999;51.514;14.614;2024-01-25T03:34:43;100202.38;;;-1.58;100.00
15880;BME280;61999;51.514;14.614;2024-01-25T03:37:12;100197.59;;;-1.41;100.00
15880;BME280;61999;51.514;14.614;2024-01-25T03:39:39;100186.44;;;-1.43;100.00
15880;BME280;61999;51.514;14.614;2024-01-25T03:42:07;100145.03;;;-1.74;100.00
15880;BME280;61999;51.514;14.614;2024-01-25T03:44:35;100191.78;;;-1.83;100.00
15880;BME280;61999;51.514;14.614;2024-01-25T03:47:04;100199.78;;;-1.94;100.00
15880;BME280;61999;51.514;14.614;2024-01-25T03:49:33;100188.84;;;-1.70;100.00
15880;BME280;61999;51.514;14.614;2024-01-25T03:52:02;100196.03;;;-1.82;100.00
15880;BME280;61999;51.514;14.614;2024-01-25T03:54:30;100211.72;;;-1.89;100.00
15880;BME280;61999;51.514;14.614;2024-01-25T03:56:58;100201.28;;;-1.51;100.00
15880;BME280;61999;51.514;14.614;2024-01-25T03:59:26;100204.03;;;-1.92;100.00
15880;BME280;61999;51.514;14.614;2024-01-25T04:01:54;100212.63;;;-1.91;100.00
15880;BME280;61999;51.514;14.614;2024-01-25T04:04:22;100197.88;;;-1.86;100.00
15880;BME280;61999;51.514;14.614;2024-01-25T04:06:52;100206.47;;;-1.85;100.00
15880;BME280;61999;51.514;14.614;2024-01-25T04:09:20;100199.06;;;-1.99;100.00
15880;BME280;61999;51.514;14.614;2024-01-25T04:11:48;100196.03;;;-1.81;100.00
15880;BME280;61999;51.514;14.614;2024-01-25T04:14:16;100175.91;;;-1.70;100.00
15880;BME280;61999;51.514;14.614;2024-01-25T04:16:44;100212.25;;;-1.76;100.00
15880;BME280;61999;51.514;14.614;2024-01-25T04:19:13;100193.81;;;-1.96;100.00
15880;BME280;61999;51.514;14.614;2024-01-25T04:21:41;100207.63;;;-1.97;100.00
15880;BME280;61999;51.514;14.614;2024-01-25T04:24:11;100206.63;;;-1.92;100.00
15880;BME280;61999;51.514;14.614;2024-01-25T04:26:38;100201.53;;;-1.62;100.00
15880;BME280;61999;51.514;14.614;2024-01-25T04:29:06;100190.50;;;-2.01;100.00
15880;BME280;61999;51.514;14.614;2024-01-25T04:31:34;100220.59;;;-1.65;100.00
15880;BME280;61999;51.514;14.614;2024-01-25T04:34:02;100227.19;;;-1.87;100.00
15880;BME280;61999;51.514;14.614;2024-01-25T04:36:30;100213.94;;;-1.75;100.00
15880;BME280;61999;51.514;14.614;2024-01-25T04:38:58;100212.38;;;-1.82;100.00
15880;BME280;61999;51.514;14.614;2024-01-25T04:41:28;100222.88;;;-1.87;100.00
15880;BME280;61999;51.514;14.614;2024-01-25T04:43:56;100246.13;;;-1.87;100.00
15880;BME280;61999;51.514;14.614;2024-01-25T04:46:24;100198.75;;;-1.87;100.00
15880;BME280;61999;51.514;14.614;2024-01-25T04:48:53;100242.03;;;-1.95;100.00
15880;BME280;61999;51.514;14.614;2024-01-25T04:51:21;100240.78;;;-1.80;100.00
15880;BME280;61999;51.514;14.614;2024-01-25T04:53:49;100203.22;;;-1.59;100.00
15880;BME280;61999;51.514;14.614;2024-01-25T04:56:18;100229.22;;;-1.66;100.00
15880;BME280;61999;51.514;14.614;2024-01-25T04:58:47;100230.28;;;-1.74;100.00
15880;BME280;61999;51.514;14.614;2024-01-25T05:01:15;100204.94;;;-1.58;100.00
15880;BME280;61999;51.514;14.614;2024-01-25T05:03:43;100238.53;;;-1.94;100.00
15880;BME280;61999;51.514;14.614;2024-01-25T05:06:11;100235.78;;;-1.87;100.00
15880;BME280;61999;51.514;14.614;2024-01-25T05:08:42;100239.28;;;-1.89;100.00
15880;BME280;61999;51.514;14.614;2024-01-25T05:11:11;100243.72;;;-1.94;100.00
15880;BME280;61999;51.514;14.614;2024-01-25T05:13:39;100227.06;;;-1.82;100.00
15880;BME280;61999;51.514;14.614;2024-01-25T05:16:09;100235.72;;;-1.49;100.00
15880;BME280;61999;51.514;14.614;2024-01-25T05:18:37;100211.47;;;-1.45;100.00
15880;BME280;61999;51.514;14.614;2024-01-25T05:21:05;100222.09;;;-1.90;100.00
15880;BME280;61999;51.514;14.614;2024-01-25T05:23:33;100234.28;;;-1.95;100.00
15880;BME280;61999;51.514;14.614;2024-01-25T05:26:01;100226.44;;;-1.92;100.00
15880;BME280;61999;51.514;14.614;2024-01-25T05:28:29;100251.88;;;-1.77;100.00
15880;BME280;61999;51.514;14.614;2024-01-25T05:30:58;100178.22;;;-1.59;100.00
15880;BME280;61999;51.514;14.614;2024-01-25T05:33:29;100226.03;;;-1.77;100.00
15880;BME280;61999;51.514;14.614;2024-01-25T05:35:57;100234.66;;;-1.42;100.00
15880;BME280;61999;51.514;14.614;2024-01-25T05:38:25;100251.44;;;-1.93;100.00
15880;BME280;61999;51.514;14.614;2024-01-25T05:40:53;100269.19;;;-1.79;100.00
15880;BME280;61999;51.514;14.614;2024-01-25T05:43:21;100256.41;;;-1.85;100.00
15880;BME280;61999;51.514;14.614;2024-01-25T05:45:49;100262.00;;;-1.68;100.00
15880;BME280;61999;51.514;14.614;2024-01-25T05:48:17;100255.59;;;-1.87;100.00
15880;BME280;61999;51.514;14.614;2024-01-25T05:50:47;100263.00;;;-1.73;100.00
15880;BME280;61999;51.514;14.614;2024-01-25T05:53:15;100290.06;;;-1.88;100.00
15880;BME280;61999;51.514;14.614;2024-01-25T05:55:45;100258.84;;;-1.79;100.00
15880;BME280;61999;51.514;14.614;2024-01-25T05:58:13;100237.03;;;-1.67;100.00
15880;BME280;61999;51.514;14.614;2024-01-25T06:00:42;100289.28;;;-1.90;100.00
15880;BME280;61999;51.514;14.614;2024-01-25T06:03:10;100258.97;;;-1.49;100.00
15880;BME280;61999;51.514;14.614;2024-01-25T06:05:38;100292.69;;;-1.52;100.00
15880;BME280;61999;51.514;14.614;2024-01-25T06:08:08;100264.88;;;-1.80;100.00
15880;BME280;61999;51.514;14.614;2024-01-25T06:10:36;100297.22;;;-1.99;100.00
15880;BME280;61999;51.514;14.614;2024-01-25T06:13:04;100310.06;;;-1.96;100.00
15880;BME280;61999;51.514;14.614;2024-01-25T06:15:32;100282.69;;;-2.03;100.00
15880;BME280;61999;51.514;14.614;2024-01-25T06:18:00;100297.88;;;-1.91;100.00
15880;BME280;61999;51.514;14.614;2024-01-25T06:20:29;100318.31;;;-1.80;100.00
15880;BME280;61999;51.514;14.614;2024-01-25T06:22:58;100320.78;;;-1.76;100.00
15880;BME280;61999;51.514;14.614;2024-01-25T06:25:27;100325.44;;;-1.90;100.00
15880;BME280;61999;51.514;14.614;2024-01-25T06:27:57;100314.63;;;-1.70;100.00
15880;BME280;61999;51.514;14.614;2024-01-25T06:30:26;100325.09;;;-1.76;100.00
15880;BME280;61999;51.514;14.614;2024-01-25T06:32:56;100333.50;;;-1.67;100.00
15880;BME280;61999;51.514;14.614;2024-01-25T06:35:24;100304.53;;;-1.81;100.00
15880;BME280;61999;51.514;14.614;2024-01-25T06:37:52;100320.38;;;-1.57;100.00
15880;BME280;61999;51.514;14.614;2024-01-25T06:40:20;100316.16;;;-1.63;100.00
15880;BME280;61999;51.514;14.614;2024-01-25T06:42:50;100340.13;;;-1.92;100.00
15880;BME280;61999;51.514;14.614;2024-01-25T06:45:18;100360.28;;;-1.71;100.00
15880;BME280;61999;51.514;14.614;2024-01-25T06:47:46;100352.09;;;-1.51;100.00
15880;BME280;61999;51.514;14.614;2024-01-25T06:50:14;100365.66;;;-1.41;100.00
15880;BME280;61999;51.514;14.614;2024-01-25T06:52:42;100361.41;;;-1.45;100.00
15880;BME280;61999;51.514;14.614;2024-01-25T06:55:10;100392.78;;;-1.99;100.00
15880;BME280;61999;51.514;14.614;2024-01-25T06:57:39;100368.25;;;-1.41;100.00
15880;BME280;61999;51.514;14.614;2024-01-25T07:00:09;100370.09;;;-1.85;100.00
15880;BME280;61999;51.514;14.614;2024-01-25T07:02:39;100376.94;;;-1.45;100.00
15880;BME280;61999;51.514;14.614;2024-01-25T07:05:08;100358.16;;;-1.91;100.00
15880;BME280;61999;51.514;14.614;2024-01-25T07:07:36;100381.41;;;-1.91;100.00
15880;BME280;61999;51.514;14.614;2024-01-25T07:10:06;100385.50;;;-1.80;100.00
15880;BME280;61999;51.514;14.614;2024-01-25T07:12:34;100399.63;;;-1.97;100.00
15880;BME280;61999;51.514;14.614;2024-01-25T07:15:02;100363.88;;;-2.15;100.00
15880;BME280;61999;51.514;14.614;2024-01-25T07:17:32;100384.50;;;-1.75;100.00
15880;BME280;61999;51.514;14.614;2024-01-25T07:20:00;100401.47;;;-1.61;100.00
15880;BME280;61999;51.514;14.614;2024-01-25T07:22:28;100397.47;;;-1.39;100.00
15880;BME280;61999;51.514;14.614;2024-01-25T07:24:56;100410.69;;;-1.90;100.00
15880;BME280;61999;51.514;14.614;2024-01-25T07:27:24;100391.78;;;-1.92;100.00
15880;BME280;61999;51.514;14.614;2024-01-25T07:29:52;100435.41;;;-1.38;100.00
15880;BME280;61999;51.514;14.614;2024-01-25T07:32:20;100437.34;;;-1.88;100.00
15880;BME280;61999;51.514;14.614;2024-01-25T07:34:49;100402.53;;;-1.73;100.00
15880;BME280;61999;51.514;14.614;2024-01-25T07:37:17;100442.88;;;-1.65;100.00
15880;BME280;61999;51.514;14.614;2024-01-25T07:39:46;100437.59;;;-2.00;100.00
15880;BME280;61999;51.514;14.614;2024-01-25T07:42:14;100429.59;;;-1.88;100.00
15880;BME280;61999;51.514;14.614;2024-01-25T07:44:42;100427.69;;;-1.80;100.00
15880;BME280;61999;51.514;14.614;2024-01-25T07:47:10;100422.38;;;-1.74;100.00
15880;BME280;61999;51.514;14.614;2024-01-25T07:49:40;100425.28;;;-1.47;100.00
15880;BME280;61999;51.514;14.614;2024-01-25T07:52:09;100425.28;;;-1.47;100.00
15880;BME280;61999;51.514;14.614;2024-01-25T07:54:37;100447.00;;;-1.56;100.00
15880;BME280;61999;51.514;14.614;2024-01-25T07:57:05;100453.31;;;-1.71;100.00
15880;BME280;61999;51.514;14.614;2024-01-25T07:59:33;100451.97;;;-1.47;100.00
15880;BME280;61999;51.514;14.614;2024-01-25T08:02:01;100458.25;;;-0.85;100.00
15880;BME280;61999;51.514;14.614;2024-01-25T08:04:29;100455.47;;;-1.13;100.00
15880;BME280;61999;51.514;14.614;2024-01-25T08:06:58;100445.84;;;-1.43;100.00
15880;BME280;61999;51.514;14.614;2024-01-25T08:09:27;100468.47;;;-1.52;100.00
15880;BME280;61999;51.514;14.614;2024-01-25T08:11:55;100454.94;;;-1.26;100.00
15880;BME280;61999;51.514;14.614;2024-01-25T08:14:23;100463.59;;;-1.68;100.00
15880;BME280;61999;51.514;14.614;2024-01-25T08:16:51;100457.53;;;-1.28;100.00
15880;BME280;61999;51.514;14.614;2024-01-25T08:19:19;100468.19;;;-1.82;100.00
15880;BME280;61999;51.514;14.614;2024-01-25T08:21:48;100477.97;;;-1.96;100.00
15880;BME280;61999;51.514;14.614;2024-01-25T08:24:16;100465.63;;;-1.82;100.00
15880;BME280;61999;51.514;14.614;2024-01-25T08:26:45;100463.78;;;-1.77;100.00
15880;BME280;61999;51.514;14.614;2024-01-25T08:29:13;100491.50;;;-1.41;100.00
15880;BME280;61999;51.514;14.614;2024-01-25T08:31:41;100486.19;;;-1.35;100.00
15880;BME280;61999;51.514;14.614;2024-01-25T08:34:09;100470.69;;;-1.76;100.00
15880;BME280;61999;51.514;14.614;2024-01-25T08:36:37;100476.09;;;-1.48;100.00
15880;BME280;61999;51.514;14.614;2024-01-25T08:39:05;100471.53;;;-1.35;100.00
15880;BME280;61999;51.514;14.614;2024-01-25T08:41:35;100468.47;;;-1.52;100.00
15880;BME280;61999;51.514;14.614;2024-01-25T08:44:05;100484.59;;;-1.83;100.00
15880;BME280;61999;51.514;14.614;2024-01-25T08:46:33;100469.38;;;-1.97;100.00
15880;BME280;61999;51.514;14.614;2024-01-25T08:49:01;100468.91;;;-1.74;100.00
15880;BME280;61999;51.514;14.614;2024-01-25T08:51:35;100485.59;;;-1.48;100.00
15880;BME280;61999;51.514;14.614;2024-01-25T08:54:03;100488.88;;;-1.40;100.00
15880;BME280;61999;51.514;14.614;2024-01-25T08:56:31;100479.06;;;-1.65;100.00
15880;BME280;61999;51.514;14.614;2024-01-25T08:58:59;100477.28;;;-1.62;100.00
15880;BME280;61999;51.514;14.614;2024-01-25T09:01:28;100487.59;;;-1.62;100.00
15880;BME280;61999;51.514;14.614;2024-01-25T09:03:57;100499.56;;;-1.55;100.00
15880;BME280;61999;51.514;14.614;2024-01-25T09:06:29;100482.78;;;-1.78;100.00
15880;BME280;61999;51.514;14.614;2024-01-25T09:08:57;100507.44;;;-1.63;100.00
15880;BME280;61999;51.514;14.614;2024-01-25T09:11:25;100496.25;;;-1.63;100.00
15880;BME280;61999;51.514;14.614;2024-01-25T09:13:53;100476.00;;;-1.43;100.00
15880;BME280;61999;51.514;14.614;2024-01-25T09:16:21;100515.00;;;-1.52;100.00
15880;BME280;61999;51.514;14.614;2024-01-25T09:18:51;100492.22;;;-1.35;100.00
15880;BME280;61999;51.514;14.614;2024-01-25T09:21:19;100521.56;;;-1.79;100.00
15880;BME280;61999;51.514;14.614;2024-01-25T09:23:47;100499.75;;;-1.26;100.00
15880;BME280;61999;51.514;14.614;2024-01-25T09:26:16;100528.38;;;-1.33;100.00
15880;BME280;61999;51.514;14.614;2024-01-25T09:28:44;100515.78;;;-1.49;100.00
15880;BME280;61999;51.514;14.614;2024-01-25T09:31:12;100532.16;;;-1.48;100.00
15880;BME280;61999;51.514;14.614;2024-01-25T09:33:40;100508.06;;;-1.50;100.00
15880;BME280;61999;51.514;14.614;2024-01-25T09:36:09;100511.38;;;-1.45;100.00
15880;BME280;61999;51.514;14.614;2024-01-25T09:38:38;100500.31;;;-1.50;100.00
15880;BME280;61999;51.514;14.614;2024-01-25T09:41:06;100528.66;;;-1.46;100.00
15880;BME280;61999;51.514;14.614;2024-01-25T09:43:34;100530.19;;;-1.37;100.00
15880;BME280;61999;51.514;14.614;2024-01-25T09:46:06;100541.66;;;-1.11;100.00
15880;BME280;61999;51.514;14.614;2024-01-25T09:48:35;100538.19;;;-1.10;100.00
15880;BME280;61999;51.514;14.614;2024-01-25T09:51:04;100543.44;;;-1.13;100.00
15880;BME280;61999;51.514;14.614;2024-01-25T09:53:33;100552.25;;;-1.21;100.00
15880;BME280;61999;51.514;14.614;2024-01-25T09:56:07;100558.31;;;-1.23;100.00
15880;BME280;61999;51.514;14.614;2024-01-25T09:58:39;100553.06;;;-1.18;100.00
15880;BME280;61999;51.514;14.614;2024-01-25T10:01:10;100572.06;;;-1.63;100.00
15880;BME280;61999;51.514;14.614;2024-01-25T10:03:41;100571.88;;;-1.52;100.00
15880;BME280;61999;51.514;14.614;2024-01-25T10:06:11;100574.75;;;-1.24;100.00
15880;BME280;61999;51.514;14.614;2024-01-25T10:08:41;100563.56;;;-1.26;100.00
15880;BME280;61999;51.514;14.614;2024-01-25T10:11:10;100569.31;;;-0.76;100.00
15880;BME280;61999;51.514;14.614;2024-01-25T10:13:40;100573.31;;;-1.39;100.00
15880;BME280;61999;51.514;14.614;2024-01-25T10:16:11;100572.34;;;-1.77;100.00
15880;BME280;61999;51.514;14.614;2024-01-25T10:18:41;100565.94;;;-1.15;100.00
15880;BME280;61999;51.514;14.614;2024-01-25T10:21:09;100571.63;;;-1.40;100.00
15880;BME280;61999;51.514;14.614;2024-01-25T10:23:38;100571.19;;;-0.81;100.00
15880;BME280;61999;51.514;14.614;2024-01-25T10:26:09;100560.63;;;-1.11;100.00
15880;BME280;61999;51.514;14.614;2024-01-25T10:28:38;100557.63;;;-0.92;100.00
15880;BME280;61999;51.514;14.614;2024-01-25T10:31:06;100564.94;;;-0.72;100.00
15880;BME280;61999;51.514;14.614;2024-01-25T10:33:38;100578.22;;;-0.52;100.00
15880;BME280;61999;51.514;14.614;2024-01-25T10:36:10;100582.72;;;-0.96;100.00
15880;BME280;61999;51.514;14.614;2024-01-25T10:38:40;100578.38;;;-1.33;100.00
15880;BME280;61999;51.514;14.614;2024-01-25T10:41:10;100587.53;;;-1.58;100.00
15880;BME280;61999;51.514;14.614;2024-01-25T10:43:41;100587.34;;;-1.51;100.00
15880;BME280;61999;51.514;14.614;2024-01-25T10:46:10;100574.34;;;-1.46;100.00
15880;BME280;61999;51.514;14.614;2024-01-25T10:48:40;100566.66;;;-1.49;100.00
15880;BME280;61999;51.514;14.614;2024-01-25T10:51:10;100540.28;;;-0.89;100.00
15880;BME280;61999;51.514;14.614;2024-01-25T10:53:41;100583.91;;;-1.11;100.00
15880;BME280;61999;51.514;14.614;2024-01-25T10:56:11;100607.69;;;-1.34;100.00
15880;BME280;61999;51.514;14.614;2024-01-25T10:58:41;100575.31;;;-1.11;100.00
15880;BME280;61999;51.514;14.614;2024-01-25T11:01:10;100597.00;;;-1.59;100.00
15880;BME280;61999;51.514;14.614;2024-01-25T11:03:40;100593.00;;;-1.77;100.00
15880;BME280;61999;51.514;14.614;2024-01-25T11:06:10;100610.19;;;-1.73;100.00
15880;BME280;61999;51.514;14.614;2024-01-25T11:08:40;100583.25;;;-1.62;100.00
15880;BME280;61999;51.514;14.614;2024-01-25T11:11:13;100608.94;;;-1.52;100.00
15880;BME280;61999;51.514;14.614;2024-01-25T11:13:42;100594.81;;;-1.35;100.00
15880;BME280;61999;51.514;14.614;2024-01-25T11:16:13;100597.66;;;-1.07;100.00
15880;BME280;61999;51.514;14.614;2024-01-25T11:18:49;100605.94;;;-1.32;100.00
15880;BME280;61999;51.514;14.614;2024-01-25T11:21:26;100591.19;;;-1.28;100.00
15880;BME280;61999;51.514;14.614;2024-01-25T11:24:01;100587.94;;;-0.60;100.00
15880;BME280;61999;51.514;14.614;2024-01-25T11:26:32;100602.63;;;-1.00;100.00
15880;BME280;61999;51.514;14.614;2024-01-25T11:29:01;100577.94;;;-0.76;100.00
15880;BME280;61999;51.514;14.614;2024-01-25T11:31:30;100610.31;;;-0.95;100.00
15880;BME280;61999;51.514;14.614;2024-01-25T11:33:58;100601.03;;;-1.44;100.00
15880;BME280;61999;51.514;14.614;2024-01-25T11:36:27;100581.09;;;-1.00;100.00
15880;BME280;61999;51.514;14.614;2024-01-25T11:38:56;100583.66;;;-0.99;100.00
15880;BME280;61999;51.514;14.614;2024-01-25T11:41:25;100595.56;;;-0.91;100.00
15880;BME280;61999;51.514;14.614;2024-01-25T11:43:55;100591.44;;;-1.00;100.00
15880;BME280;61999;51.514;14.614;2024-01-25T11:46:23;100621.50;;;-1.35;100.00
15880;BME280;61999;51.514;14.614;2024-01-25T11:48:52;100594.94;;;-1.03;100.00
15880;BME280;61999;51.514;14.614;2024-01-25T11:51:20;100605.47;;;-1.10;100.00
15880;BME280;61999;51.514;14.614;2024-01-25T11:53:48;100627.97;;;-0.75;100.00
15880;BME280;61999;51.514;14.614;2024-01-25T11:56:22;100601.03;;;-1.05;100.00
15880;BME280;61999;51.514;14.614;2024-01-25T11:58:51;100598.19;;;-0.93;100.00
15880;BME280;61999;51.514;14.614;2024-01-25T12:01:21;100604.16;;;-0.91;100.00
15880;BME280;61999;51.514;14.614;2024-01-25T12:03:49;100612.84;;;-0.92;100.00
15880;BME280;61999;51.514;14.614;2024-01-25T12:06:18;100610.31;;;-0.58;100.00
15880;BME280;61999;51.514;14.614;2024-01-25T12:08:46;100590.00;;;-1.13;100.00
15880;BME280;61999;51.514;14.614;2024-01-25T12:11:15;100601.19;;;-1.11;100.00
15880;BME280;61999;51.514;14.614;2024-01-25T12:13:44;100609.66;;;-1.05;100.00
15880;BME280;61999;51.514;14.614;2024-01-25T12:16:13;100605.66;;;-1.20;100.00
15880;BME280;61999;51.514;14.614;2024-01-25T12:18:43;100599.44;;;-1.51;100.00
15880;BME280;61999;51.514;14.614;2024-01-25T12:21:13;100607.81;;;-1.00;100.00
15880;BME280;61999;51.514;14.614;2024-01-25T12:23:42;100611.28;;;-1.01;100.00
15880;BME280;61999;51.514;14.614;2024-01-25T12:26:11;100628.75;;;-0.71;100.00
15880;BME280;61999;51.514;14.614;2024-01-25T12:28:39;100620.84;;;-0.30;100.00
15880;BME280;61999;51.514;14.614;2024-01-25T12:31:07;100603.78;;;-0.74;100.00
15880;BME280;61999;51.514;14.614;2024-01-25T12:33:36;100604.16;;;-0.91;100.00
15880;BME280;61999;51.514;14.614;2024-01-25T12:36:06;100621.44;;;-0.54;100.00
15880;BME280;61999;51.514;14.614;2024-01-25T12:38:34;100615.06;;;-0.77;100.00